Saint-Pierre, Reunion Island

4:48 AM RET on September 01, 2016 (GMT +0400)
Rue Theodore Thomas | | Change Station

Elev 442 ft 21.32 °S, 55.48 °E | Updated 7 minutes ago

Mostly Cloudy
Mostly Cloudy
65.5 °F
Feels Like 65.5 °F
N
4.3
Wind Variable Wind from SE
Gusts 9.3 mph

Today
High -- | Low -- °F
--% Chance of Precip.
Yesterday
High -- | Low -- °F
Precip. -- in
Pressure 30.30 in
Visibility 6.2 miles
Clouds Mostly Cloudy 1700 ft
Mostly Cloudy 2700 ft
Mostly Cloudy 3500 ft
Dew Point 61 °F
Humidity 86%
Rainfall Not available.
Snow Depth Not available.
6:27 AM 6:08 PM
Waning Crescent, 0% visible
METAR FMEP 010030Z AUTO 11017KT 9999 BKN017 BKN027 BKN035 18/17 Q1026
Pressure 30.30 in
Visibility 6.2 miles
Clouds Mostly Cloudy 1700 ft
Mostly Cloudy 2700 ft
Mostly Cloudy 3500 ft
Dew Point 61 °F
Humidity 86%
Rainfall Not available.
Snow Depth Not available.
6:27 AM 6:08 PM
Waning Crescent, 0% visible
METAR FMEP 010030Z AUTO 11017KT 9999 BKN017 BKN027 BKN035 18/17 Q1026

10-Day Weather Forecast

No radar image for this location.
×

Almanac

Astronomy

Sep. 01, 2016 Rise Set
Actual Time
Civil Twilight
Nautical Twilight
Astronomical Twilight
Moon
Length of Visible Light
Length of Day
Tomorrow will be .
, % of the Moon is Illuminated

Today's Extremes

Country Highs Country Lows

Community

WunderPhotos

Upload Photos

1,936,237 photos uploaded!

WunderBlog® & News

Nearby

Air Quality

  Air Quality AQ Index Pollutant
Not available.

Snow Depth

Station Depth Elevation

Earthquake Activity

City Distance Mag. Time & Date
Minimum magnitude displayed is 2.5.

Coastal Water Temperatures

Place Temperature

Stations

Nearby Weather Stations

Station Location Temp. Windchill Dew Point Humidity Wind Precip. Elev Updated Type